createdAt,value
2022-11-03T00:01:46.436Z,6.57
2022-11-03T00:04:18.171Z,6.05
2022-11-03T00:06:47.614Z,6.28
2022-11-03T00:09:15.902Z,6.45
2022-11-03T00:11:44.124Z,6.65
2022-11-03T00:14:11.660Z,6.88
2022-11-03T00:16:39.469Z,6.05
2022-11-03T00:19:07.205Z,6.43
2022-11-03T00:21:33.880Z,6.80
2022-11-03T00:24:02.766Z,5.85
2022-11-03T00:26:31.307Z,6.18
2022-11-03T00:29:05.922Z,6.70
2022-11-03T00:31:35.137Z,6.40
2022-11-03T00:34:02.548Z,6.43
2022-11-03T00:36:34.913Z,7.07
2022-11-03T00:39:01.931Z,6.30
2022-11-03T00:41:28.509Z,6.18
2022-11-03T00:43:55.551Z,5.60
2022-11-03T00:46:23.119Z,5.88
2022-11-03T00:48:50.460Z,6.03
2022-11-03T00:51:21.323Z,6.15
2022-11-03T00:53:49.127Z,5.97
2022-11-03T00:56:22.180Z,6.22
2022-11-03T00:58:50.250Z,6.25
2022-11-03T01:01:20.272Z,5.97
2022-11-03T01:04:09.763Z,6.70
2022-11-03T01:06:50.676Z,6.15
2022-11-03T01:09:39.869Z,6.35
2022-11-03T01:12:13.092Z,6.20
2022-11-03T01:14:44.209Z,6.13
2022-11-03T01:17:16.851Z,6.47
2022-11-03T01:19:43.462Z,7.03
2022-11-03T01:22:11.440Z,6.68
2022-11-03T01:24:41.256Z,6.68
2022-11-03T01:27:13.722Z,6.30
2022-11-03T01:29:40.929Z,6.68
2022-11-03T01:32:08.793Z,7.22
2022-11-03T01:34:35.776Z,7.00
2022-11-03T01:37:02.868Z,6.70
2022-11-03T01:39:29.389Z,6.40
2022-11-03T01:41:56.494Z,6.68
2022-11-03T01:44:22.982Z,6.78
2022-11-03T01:46:59.337Z,6.60
2022-11-03T01:49:32.757Z,6.18
2022-11-03T01:52:09.919Z,5.82
2022-11-03T01:54:38.118Z,6.30
2022-11-03T01:57:11.692Z,6.00
2022-11-03T01:59:40.005Z,6.20
2022-11-03T02:02:06.744Z,6.63
2022-11-03T02:04:34.926Z,6.38
2022-11-03T02:07:10.175Z,6.13
2022-11-03T02:09:36.813Z,6.13
2022-11-03T02:12:06.399Z,6.13
2022-11-03T02:14:33.270Z,6.47
2022-11-03T02:17:06.273Z,6.20
2022-11-03T02:19:47.464Z,6.30
2022-11-03T02:22:38.827Z,5.93
2022-11-03T02:25:32.931Z,6.47
2022-11-03T02:28:00.334Z,5.95
2022-11-03T02:30:38.639Z,6.55
2022-11-03T02:33:59.815Z,6.07
2022-11-03T02:36:31.544Z,6.35
2022-11-03T02:39:05.628Z,5.97
2022-11-03T02:41:35.542Z,5.65
2022-11-03T02:44:04.378Z,8.50
2022-11-03T02:46:32.857Z,5.63
2022-11-03T02:48:59.384Z,5.55
2022-11-03T02:51:26.101Z,5.43
2022-11-03T02:54:26.190Z,5.80
2022-11-03T02:56:59.352Z,5.95
2022-11-03T02:59:50.612Z,5.72
2022-11-03T03:02:24.194Z,5.20
2022-11-03T03:04:55.871Z,5.50
2022-11-03T03:07:30.506Z,5.72
2022-11-03T03:10:03.211Z,5.53
2022-11-03T03:12:32.475Z,5.68
2022-11-03T03:15:02.296Z,5.20
2022-11-03T03:17:35.046Z,5.70
2022-11-03T03:20:04.010Z,5.15
2022-11-03T03:22:39.092Z,4.93
2022-11-03T03:25:29.444Z,5.43
2022-11-03T03:28:05.278Z,5.30
2022-11-03T03:30:33.853Z,5.25
2022-11-03T03:33:04.597Z,5.22
2022-11-03T03:35:33.360Z,5.70
2022-11-03T03:38:06.296Z,6.03
2022-11-03T03:40:36.712Z,5.65
2022-11-03T03:43:07.088Z,6.00
2022-11-03T03:45:36.338Z,5.55
2022-11-03T03:48:04.710Z,5.78
2022-11-03T03:50:35.843Z,5.68
2022-11-03T03:53:05.375Z,5.50
2022-11-03T03:55:39.528Z,5.10
2022-11-03T03:58:07.462Z,5.63
2022-11-03T04:00:34.085Z,5.72
2022-11-03T04:03:00.618Z,5.25
2022-11-03T04:05:27.611Z,5.72
2022-11-03T04:07:54.249Z,5.97
2022-11-03T04:10:22.688Z,6.00
2022-11-03T04:13:08.704Z,6.30
2022-11-03T04:16:01.772Z,5.60
2022-11-03T04:18:47.241Z,6.20
2022-11-03T04:21:33.041Z,6.13
2022-11-03T04:24:02.699Z,5.47
2022-11-03T04:26:29.854Z,5.85
2022-11-03T04:28:57.874Z,6.03
2022-11-03T04:31:24.608Z,6.20
2022-11-03T04:33:51.156Z,5.72
2022-11-03T04:36:22.725Z,5.88
2022-11-03T04:38:51.214Z,5.75
2022-11-03T04:41:24.213Z,5.97
2022-11-03T04:43:52.613Z,5.88
2022-11-03T04:46:28.924Z,6.03
2022-11-03T04:48:59.380Z,5.75
2022-11-03T04:51:30.678Z,5.82
2022-11-03T04:54:13.236Z,5.90
2022-11-03T04:56:40.871Z,6.00
2022-11-03T04:59:13.312Z,5.95
2022-11-03T05:01:40.596Z,6.07
2022-11-03T05:04:16.329Z,6.93
2022-11-03T05:06:53.429Z,6.40
2022-11-03T05:09:26.914Z,6.43
2022-11-03T05:11:54.257Z,6.07
2022-11-03T05:14:24.569Z,5.60
2022-11-03T05:16:53.947Z,6.20
2022-11-03T05:19:24.562Z,6.47
2022-11-03T05:21:52.745Z,5.90
2022-11-03T05:24:21.845Z,6.75
2022-11-03T05:26:49.704Z,5.80
2022-11-03T05:29:20.332Z,6.75
2022-11-03T05:31:48.456Z,6.15
2022-11-03T05:34:26.992Z,6.32
2022-11-03T05:36:53.896Z,7.05
2022-11-03T05:39:29.010Z,6.22
2022-11-03T05:41:58.044Z,6.45
2022-11-03T05:44:37.810Z,6.90
2022-11-03T05:47:14.372Z,5.90
2022-11-03T05:49:41.017Z,6.75
2022-11-03T05:52:18.059Z,6.75
2022-11-03T05:54:44.766Z,6.57
2022-11-03T05:57:14.822Z,6.10
2022-11-03T05:59:45.001Z,7.03
2022-11-03T06:02:27.393Z,7.00
2022-11-03T06:04:54.043Z,9.48
2022-11-03T06:07:24.787Z,6.90
2022-11-03T06:12:22.216Z,7.22
2022-11-03T06:14:49.650Z,6.85
2022-11-03T06:17:25.579Z,7.32
2022-11-03T06:20:00.446Z,6.65
2022-11-03T06:22:36.107Z,6.82
2022-11-03T06:25:24.019Z,6.50
2022-11-03T06:27:51.583Z,7.30
2022-11-03T06:30:20.984Z,7.18
2022-11-03T06:32:47.728Z,7.53
2022-11-03T06:35:14.790Z,7.20
2022-11-03T06:37:42.302Z,6.85
2022-11-03T06:40:11.705Z,6.82
2022-11-03T06:42:41.300Z,6.80
2022-11-03T06:45:19.363Z,7.78
2022-11-03T06:47:46.567Z,7.32
2022-11-03T06:50:44.660Z,7.55
2022-11-03T06:53:12.101Z,6.85
2022-11-03T06:55:40.370Z,7.10
2022-11-03T06:58:28.460Z,7.18
2022-11-03T07:01:03.056Z,6.45
2022-11-03T07:03:35.389Z,10.20
2022-11-03T07:06:10.765Z,8.20
2022-11-03T07:08:48.008Z,8.10
2022-11-03T07:11:14.535Z,7.80
2022-11-03T07:13:41.683Z,7.63
2022-11-03T07:16:45.855Z,7.32
2022-11-03T07:19:24.842Z,7.00
2022-11-03T07:21:54.290Z,7.80
2022-11-03T07:24:23.525Z,8.65
2022-11-03T07:27:02.695Z,7.93
2022-11-03T07:29:30.625Z,7.65
2022-11-03T07:31:59.537Z,7.32
2022-11-03T07:34:33.488Z,7.40
2022-11-03T07:37:00.747Z,6.55
2022-11-03T07:39:35.096Z,6.97
2022-11-03T07:42:09.723Z,6.43
2022-11-03T07:44:36.258Z,6.32
2022-11-03T07:47:03.236Z,6.60
2022-11-03T07:49:30.354Z,6.57
2022-11-03T07:51:59.079Z,8.95
2022-11-03T07:54:33.124Z,7.53
2022-11-03T07:57:14.841Z,6.90
2022-11-03T07:59:44.859Z,6.57
2022-11-03T08:02:26.274Z,6.25
2022-11-03T08:04:52.862Z,6.35
2022-11-03T08:07:19.431Z,6.30
2022-11-03T08:09:45.994Z,6.18
2022-11-03T08:12:12.563Z,5.80
2022-11-03T08:14:39.130Z,5.63
2022-11-03T08:17:05.704Z,6.07
2022-11-03T08:19:32.223Z,5.50
2022-11-03T08:21:58.806Z,6.05
2022-11-03T08:24:25.444Z,5.68
2022-11-03T08:26:51.995Z,5.15
2022-11-03T08:29:18.864Z,5.63
2022-11-03T08:31:45.547Z,5.20
2022-11-03T08:34:12.132Z,5.47
2022-11-03T08:36:38.642Z,5.80
2022-11-03T08:39:05.193Z,5.68
2022-11-03T08:41:31.759Z,7.35
2022-11-03T08:43:58.431Z,5.60
2022-11-03T08:46:24.908Z,6.00
2022-11-03T08:48:52.051Z,6.00
2022-11-03T08:51:18.664Z,6.65
2022-11-03T08:53:46.382Z,5.95
2022-11-03T08:56:14.352Z,6.40
2022-11-03T08:58:44.067Z,6.53
2022-11-03T09:01:10.979Z,5.47
2022-11-03T09:03:37.757Z,6.05
2022-11-03T09:06:04.924Z,5.95
2022-11-03T09:11:18.288Z,6.13
2022-11-03T09:13:44.785Z,7.68
2022-11-03T09:16:11.319Z,7.20
2022-11-03T09:18:37.870Z,7.35
2022-11-03T09:21:04.453Z,7.25
2022-11-03T09:23:30.936Z,7.03
2022-11-03T09:25:57.493Z,6.28
2022-11-03T09:28:24.040Z,6.97
2022-11-03T09:30:50.608Z,6.93
2022-11-03T09:33:17.137Z,6.85
2022-11-03T09:35:43.695Z,6.78
2022-11-03T09:38:10.364Z,6.75
2022-11-03T09:40:37.100Z,6.15
2022-11-03T09:43:03.896Z,6.35
2022-11-03T09:45:30.622Z,6.13
2022-11-03T09:47:57.284Z,6.30
2022-11-03T09:50:24.261Z,7.00
2022-11-03T09:52:55.261Z,7.07
2022-11-03T09:55:25.400Z,6.40
2022-11-03T09:57:58.904Z,6.75
2022-11-03T10:00:27.165Z,6.13
2022-11-03T10:02:54.601Z,6.45
2022-11-03T10:05:27.340Z,6.53
2022-11-03T10:07:59.125Z,6.90
2022-11-03T10:10:26.388Z,6.80
2022-11-03T10:12:53.769Z,6.25
2022-11-03T10:15:22.811Z,6.05
2022-11-03T10:17:50.667Z,5.70
2022-11-03T10:20:21.187Z,5.95
2022-11-03T10:22:52.617Z,6.32
2022-11-03T10:25:37.658Z,5.47
2022-11-03T10:28:15.384Z,5.28
2022-11-03T10:33:40.984Z,5.45
2022-11-03T10:36:23.971Z,5.10
2022-11-03T10:38:50.685Z,5.32
2022-11-03T10:41:24.594Z,5.15
2022-11-03T10:44:06.174Z,4.80
2022-11-03T10:49:20.516Z,5.22
2022-11-03T10:51:50.325Z,4.88
2022-11-03T10:54:19.205Z,4.57
2022-11-03T10:56:47.098Z,5.13
2022-11-03T10:59:17.798Z,4.75
2022-11-03T11:01:44.850Z,5.13
2022-11-03T11:04:21.088Z,4.60
2022-11-03T11:06:48.178Z,4.60
2022-11-03T11:09:27.928Z,4.85
2022-11-03T11:12:16.539Z,4.33
2022-11-03T11:14:56.683Z,4.30
2022-11-03T11:17:46.375Z,3.67
2022-11-03T11:20:22.654Z,4.03
2022-11-03T11:22:50.298Z,3.95
2022-11-03T11:25:20.656Z,5.13
2022-11-03T11:27:47.097Z,5.07
2022-11-03T11:30:19.472Z,4.40
2022-11-03T11:32:45.967Z,4.82
2022-11-03T11:35:22.932Z,4.18
2022-11-03T11:37:49.483Z,4.20
2022-11-03T11:40:24.827Z,4.22
2022-11-03T11:43:20.554Z,3.63
2022-11-03T11:46:21.369Z,4.03
2022-11-03T11:54:16.479Z,3.65
2022-11-03T11:56:47.473Z,4.15
2022-11-03T11:59:24.733Z,4.57
2022-11-03T12:01:55.440Z,4.88
2022-11-03T12:04:31.553Z,4.93
2022-11-03T12:06:58.504Z,4.85
2022-11-03T12:09:29.854Z,5.32
2022-11-03T12:12:00.667Z,4.85
2022-11-03T12:14:38.389Z,5.00
2022-11-03T12:17:17.243Z,5.40
2022-11-03T12:19:48.930Z,5.63
2022-11-03T12:22:24.601Z,5.57
2022-11-03T12:25:02.971Z,5.50
2022-11-03T12:27:29.444Z,5.75
2022-11-03T12:29:59.578Z,4.95
2022-11-03T12:32:34.997Z,5.25
2022-11-03T12:35:03.386Z,5.35
2022-11-03T12:37:29.940Z,4.93
2022-11-03T12:39:56.475Z,5.20
2022-11-03T12:42:24.924Z,5.35
2022-11-03T12:44:52.351Z,4.40
2022-11-03T12:47:19.693Z,5.32
2022-11-03T12:49:46.235Z,5.05
2022-11-03T12:52:12.743Z,6.05
2022-11-03T12:54:39.771Z,5.32
2022-11-03T12:57:06.319Z,4.80
2022-11-03T12:59:32.817Z,4.90
2022-11-03T13:01:59.482Z,4.55
2022-11-03T13:04:26.187Z,4.72
2022-11-03T13:06:52.686Z,5.03
2022-11-03T13:09:19.228Z,5.47
2022-11-03T13:12:04.533Z,5.28
2022-11-03T13:14:31.192Z,5.00
2022-11-03T13:16:57.722Z,4.97
2022-11-03T13:19:24.272Z,5.10
2022-11-03T13:21:50.890Z,6.43
2022-11-03T13:24:17.426Z,5.50
2022-11-03T13:26:43.938Z,5.63
2022-11-03T13:29:10.489Z,5.63
2022-11-03T13:31:36.970Z,4.53
2022-11-03T13:34:03.424Z,7.50
2022-11-03T13:36:29.977Z,4.60
2022-11-03T13:38:56.549Z,4.65
2022-11-03T13:41:23.091Z,5.32
2022-11-03T13:43:49.632Z,6.78
2022-11-03T13:46:16.189Z,5.22
2022-11-03T13:51:29.289Z,5.00
2022-11-03T13:59:29.322Z,5.60
2022-11-03T14:04:43.653Z,4.85
2022-11-03T14:07:10.932Z,4.68
2022-11-03T14:12:22.691Z,5.05
2022-11-03T14:14:49.710Z,4.93
2022-11-03T14:17:16.288Z,5.22
2022-11-03T14:19:47.254Z,5.47
2022-11-03T14:22:17.085Z,4.57
2022-11-03T14:24:44.189Z,5.55
2022-11-03T14:27:11.629Z,7.55
2022-11-03T14:29:38.549Z,5.60
2022-11-03T14:32:05.470Z,5.00
2022-11-03T14:34:32.100Z,5.13
2022-11-03T14:36:58.784Z,4.95
2022-11-03T14:39:25.723Z,5.13
2022-11-03T14:42:05.421Z,5.15
2022-11-03T14:44:39.549Z,4.83
2022-11-03T14:47:09.417Z,4.72
2022-11-03T14:49:36.947Z,5.60
2022-11-03T14:52:06.087Z,5.65
2022-11-03T14:54:39.838Z,5.50
2022-11-03T14:57:06.611Z,5.63
2022-11-03T14:59:34.065Z,5.60
2022-11-03T15:02:01.057Z,5.68
2022-11-03T15:04:28.103Z,6.03
2022-11-03T15:06:54.713Z,5.90
2022-11-03T15:09:21.583Z,6.82
2022-11-03T15:11:48.224Z,5.90
2022-11-03T15:14:14.922Z,6.57
2022-11-03T15:16:41.540Z,5.63
2022-11-03T15:19:08.793Z,5.82
2022-11-03T15:21:36.890Z,5.82
2022-11-03T15:26:50.647Z,7.20
2022-11-03T15:29:17.278Z,7.25
2022-11-03T15:31:47.930Z,7.95
2022-11-03T15:34:15.511Z,7.82
2022-11-03T15:36:42.258Z,7.38
2022-11-03T15:39:08.950Z,7.63
2022-11-03T15:41:35.492Z,7.47
2022-11-03T15:44:02.072Z,8.65
2022-11-03T15:46:28.846Z,7.28
2022-11-03T15:48:58.006Z,7.82
2022-11-03T15:51:25.304Z,8.45
2022-11-03T15:53:57.764Z,8.32
2022-11-03T15:56:25.549Z,7.55
2022-11-03T15:58:52.110Z,8.05
2022-11-03T16:01:19.371Z,8.27
2022-11-03T16:03:46.097Z,7.03
2022-11-03T16:06:13.041Z,7.72
2022-11-03T16:08:39.607Z,7.22
2022-11-03T16:11:06.315Z,7.72
2022-11-03T16:13:32.890Z,8.38
2022-11-03T16:15:59.621Z,7.30
2022-11-03T16:18:26.261Z,7.18
2022-11-03T16:20:52.781Z,7.10
2022-11-03T16:23:19.631Z,8.52
2022-11-03T16:25:46.194Z,6.72
2022-11-03T16:28:13.056Z,7.03
2022-11-03T16:30:40.239Z,6.43
2022-11-03T16:33:07.617Z,6.50
2022-11-03T16:35:34.997Z,5.97
2022-11-03T16:38:02.520Z,6.20
2022-11-03T16:40:34.166Z,6.10
2022-11-03T16:43:11.249Z,7.05
2022-11-03T16:48:26.450Z,6.50
2022-11-03T16:50:56.810Z,6.63
2022-11-03T16:53:30.916Z,8.32
2022-11-03T16:55:59.830Z,7.28
2022-11-03T16:58:28.747Z,7.22
2022-11-03T17:00:55.599Z,7.80
2022-11-03T17:03:22.169Z,7.60
2022-11-03T17:05:48.759Z,7.60
2022-11-03T17:08:38.964Z,8.05
2022-11-03T17:11:02.011Z,7.88
2022-11-03T17:13:29.796Z,8.55
2022-11-03T17:15:56.393Z,9.57
2022-11-03T17:18:22.918Z,9.25
2022-11-03T17:20:49.458Z,10.07
2022-11-03T17:23:16.000Z,10.88
2022-11-03T17:25:42.873Z,9.98
2022-11-03T17:28:10.551Z,11.55
2022-11-03T17:30:39.388Z,10.75
2022-11-03T17:33:09.796Z,13.45
2022-11-03T17:35:40.174Z,12.43
2022-11-03T17:38:13.821Z,10.90
2022-11-03T17:40:42.687Z,9.50
2022-11-03T17:43:22.427Z,10.43
2022-11-03T17:45:49.292Z,10.20
2022-11-03T17:48:16.148Z,8.90
2022-11-03T17:50:48.952Z,8.68
2022-11-03T17:53:22.461Z,8.20
2022-11-03T17:56:09.048Z,7.93
2022-11-03T17:58:45.942Z,9.17
2022-11-03T18:01:22.466Z,9.10
2022-11-03T18:03:49.636Z,9.35
2022-11-03T18:06:25.381Z,9.55
2022-11-03T18:08:52.010Z,10.20
2022-11-03T18:11:43.990Z,9.10
2022-11-03T18:14:10.672Z,8.30
2022-11-03T18:16:37.477Z,9.10
2022-11-03T18:19:04.284Z,8.13
2022-11-03T18:21:31.038Z,8.77
2022-11-03T18:23:57.814Z,7.45
2022-11-03T18:26:26.355Z,7.75
2022-11-03T18:28:53.973Z,8.05
2022-11-03T18:31:33.725Z,7.85
2022-11-03T18:34:03.666Z,7.78
2022-11-03T18:36:35.494Z,7.45
2022-11-03T18:39:09.564Z,8.10
2022-11-03T18:41:40.592Z,7.80
2022-11-03T18:44:46.814Z,7.80
2022-11-03T18:47:15.594Z,7.25
2022-11-03T18:49:46.127Z,7.60
2022-11-03T18:52:19.456Z,8.48
2022-11-03T18:54:50.347Z,8.90
2022-11-03T18:57:21.724Z,7.68
2022-11-03T18:59:48.964Z,8.50
2022-11-03T19:02:25.394Z,8.60
2022-11-03T19:04:52.090Z,9.30
2022-11-03T19:07:24.979Z,7.90
2022-11-03T19:09:52.509Z,8.18
2022-11-03T19:12:19.483Z,7.75
2022-11-03T19:14:48.222Z,8.00
2022-11-03T19:17:23.934Z,7.95
2022-11-03T19:19:52.514Z,7.10
2022-11-03T19:22:21.029Z,6.45
2022-11-03T19:24:48.101Z,7.75
2022-11-03T19:27:25.803Z,7.95
2022-11-03T19:29:52.826Z,7.68
2022-11-03T19:32:28.073Z,8.63
2022-11-03T19:34:58.634Z,8.77
2022-11-03T19:37:25.664Z,7.85
2022-11-03T19:39:52.865Z,9.32
2022-11-03T19:42:31.243Z,8.55
2022-11-03T19:44:59.608Z,9.07
2022-11-03T19:47:31.659Z,9.13
2022-11-03T19:50:00.347Z,8.85
2022-11-03T19:52:29.416Z,9.35
2022-11-03T19:54:58.028Z,9.68
2022-11-03T19:57:24.729Z,9.80
2022-11-03T19:59:51.384Z,9.68
2022-11-03T20:02:18.245Z,10.27
2022-11-03T20:04:47.290Z,11.65
2022-11-03T20:07:15.762Z,11.75
2022-11-03T20:09:43.263Z,11.05
2022-11-03T20:12:14.730Z,11.18
2022-11-03T20:14:41.273Z,11.05
2022-11-03T20:17:10.574Z,11.68
2022-11-03T20:19:37.227Z,10.20
2022-11-03T20:22:06.054Z,11.25
2022-11-03T20:24:33.187Z,10.77
2022-11-03T20:27:01.564Z,12.07
2022-11-03T20:29:33.713Z,11.60
2022-11-03T20:32:01.650Z,11.75
2022-11-03T20:34:32.520Z,10.85
2022-11-03T20:37:05.671Z,10.50
2022-11-03T20:39:40.724Z,9.80
2022-11-03T20:42:36.568Z,9.10
2022-11-03T20:45:21.425Z,8.98
2022-11-03T20:47:54.623Z,9.98
2022-11-03T20:50:34.788Z,9.25
2022-11-03T20:58:22.774Z,10.07
2022-11-03T21:00:54.090Z,8.55
2022-11-03T21:03:38.222Z,8.32
2022-11-03T21:06:24.659Z,7.47
2022-11-03T21:08:53.058Z,7.47
2022-11-03T21:14:29.859Z,7.07
2022-11-03T21:17:37.126Z,8.00
2022-11-03T21:20:12.651Z,7.22
2022-11-03T21:25:45.073Z,6.55
2022-11-03T21:28:12.306Z,6.65
2022-11-03T21:30:38.914Z,8.25
2022-11-03T21:33:05.500Z,7.22
2022-11-03T21:35:32.002Z,8.10
2022-11-03T21:38:00.344Z,6.90
2022-11-03T21:40:27.093Z,6.68
2022-11-03T21:43:12.105Z,7.22
2022-11-03T21:45:38.794Z,6.63
2022-11-03T21:48:24.096Z,7.25
2022-11-03T21:50:50.701Z,6.07
2022-11-03T21:53:17.320Z,6.28
2022-11-03T21:55:46.373Z,5.72
2022-11-03T21:58:12.891Z,5.78
2022-11-03T22:00:39.582Z,6.30
2022-11-03T22:03:06.390Z,5.40
2022-11-03T22:05:33.532Z,6.15
2022-11-03T22:08:00.046Z,6.55
2022-11-03T22:10:26.683Z,6.72
2022-11-03T22:12:53.260Z,7.00
2022-11-03T22:15:38.696Z,6.82
2022-11-03T22:18:06.492Z,6.63
2022-11-03T22:20:52.332Z,6.82
2022-11-03T22:23:37.817Z,6.88
2022-11-03T22:26:23.073Z,8.00
2022-11-03T22:29:09.588Z,7.97
2022-11-03T22:31:42.167Z,7.97
2022-11-03T22:34:27.890Z,8.05
2022-11-03T22:36:54.396Z,9.35
2022-11-03T22:39:39.588Z,9.45
2022-11-03T22:42:24.482Z,10.00
2022-11-03T22:45:17.120Z,9.57
2022-11-03T22:47:43.696Z,8.93
2022-11-03T22:50:10.317Z,10.25
2022-11-03T22:52:36.953Z,9.68
2022-11-03T22:55:03.728Z,9.68
2022-11-03T22:57:30.246Z,9.32
2022-11-03T22:59:56.768Z,9.35
2022-11-03T23:02:23.365Z,9.43
2022-11-03T23:04:50.172Z,8.52
2022-11-03T23:07:16.705Z,8.30
2022-11-03T23:09:43.223Z,8.35
2022-11-03T23:12:09.691Z,8.77
2022-11-03T23:14:54.798Z,8.90
2022-11-03T23:17:42.343Z,8.50
2022-11-03T23:20:27.729Z,8.38
2022-11-03T23:22:54.300Z,8.40
2022-11-03T23:25:20.781Z,8.18
2022-11-03T23:27:47.613Z,8.38
2022-11-03T23:30:14.139Z,8.68
2022-11-03T23:32:40.645Z,7.93
2022-11-03T23:35:07.620Z,8.23
2022-11-03T23:37:34.266Z,7.55
2022-11-03T23:40:00.844Z,8.57
2022-11-03T23:42:27.379Z,7.72
2022-11-03T23:45:12.412Z,8.52
2022-11-03T23:47:57.600Z,8.57
2022-11-03T23:50:24.092Z,8.07
2022-11-03T23:52:50.606Z,8.15
2022-11-03T23:55:17.098Z,8.27
2022-11-03T23:58:02.021Z,7.90
